Time;durP1;ratioP1;P1;durP2;ratioP2;P2;SDS_P1;SDS_P2;PMS_P1;PMS_P2;Temp;Humidity;BMP_temperature;BMP_pressure;BME280_temperature;BME280_humidity;BME280_pressure;Samples;Min_cycle;Max_cycle;Signal;HPM_P1;HPM_P2
2022/04/12 00:00:07;;;;;;;10.48;6.75;;;;;;;8.79;36.79;101774.47;5089841;28;20427;-51
2022/04/12 00:02:35;;;;;;;15.60;10.25;;;;;;;8.88;36.72;101766.75;5089739;28;20441;-48
2022/04/12 00:05:03;;;;;;;12.15;9.13;;;;;;;8.78;36.38;101769.31;5089970;28;20409;-50
2022/04/12 00:07:30;;;;;;;27.27;20.27;;;;;;;8.82;36.81;101769.91;5090140;28;20409;-49
2022/04/12 00:09:58;;;;;;;10.07;7.38;;;;;;;8.86;37.13;101769.50;5089856;28;20424;-49
2022/04/12 00:12:25;;;;;;;7.40;5.03;;;;;;;8.86;36.80;101768.66;5089866;28;20936;-48
2022/04/12 00:14:52;;;;;;;6.35;3.78;;;;;;;8.93;36.92;101770.66;5089775;28;20790;-50
2022/04/12 00:20:06;;;;;;;6.78;4.40;;;;;;;8.83;36.72;101764.47;5089861;28;20412;-49
2022/04/12 00:22:34;;;;;;;6.32;3.75;;;;;;;8.93;36.30;101760.06;5090039;28;20495;-49
2022/04/12 00:25:01;;;;;;;5.82;3.38;;;;;;;8.83;36.64;101759.19;5089666;28;20409;-48
2022/04/12 00:27:28;;;;;;;6.43;4.73;;;;;;;8.91;36.33;101767.31;5089612;28;20440;-49
2022/04/12 00:29:56;;;;;;;4.63;3.90;;;;;;;8.73;36.77;101764.44;5089602;28;20789;-49
2022/04/12 00:32:23;;;;;;;7.43;5.20;;;;;;;8.77;36.77;101765.84;5089935;28;20438;-50
2022/04/12 00:34:50;;;;;;;6.03;4.47;;;;;;;8.77;36.37;101763.22;5089944;28;20409;-51
2022/04/12 00:37:18;;;;;;;6.85;5.10;;;;;;;8.77;36.68;101762.38;5089541;28;20435;-50
2022/04/12 00:39:45;;;;;;;8.18;4.82;;;;;;;8.74;36.50;101765.28;5089818;28;20411;-50
2022/04/12 00:42:12;;;;;;;10.40;6.73;;;;;;;8.57;36.84;101754.34;5089699;28;20465;-52
2022/04/12 00:44:39;;;;;;;7.38;4.53;;;;;;;8.72;36.59;101760.13;5089411;28;20405;-50
2022/04/12 00:47:06;;;;;;;9.57;6.70;;;;;;;8.64;36.59;101754.63;5089820;28;20406;-51
2022/04/12 00:49:33;;;;;;;7.73;5.90;;;;;;;8.66;36.71;101759.78;5089387;28;20603;-52
2022/04/12 00:54:12;;;;;;;5.73;4.30;;;;;;;8.59;37.04;101760.34;5115687;27;20407;-50
2022/04/12 00:56:39;;;;;;;8.43;5.22;;;;;;;8.55;37.08;101753.66;5067053;28;20422;-48
2022/04/12 00:59:07;;;;;;;10.68;6.78;;;;;;;8.67;37.15;101758.84;5067006;28;20416;-49
2022/04/12 01:01:35;;;;;;;7.55;5.40;;;;;;;8.65;36.86;101755.50;5063013;28;20487;-48
2022/04/12 01:04:02;;;;;;;5.00;3.33;;;;;;;8.35;37.66;101757.91;5060679;28;20430;-49
2022/04/12 01:06:29;;;;;;;6.90;4.10;;;;;;;8.62;36.90;101751.28;5066281;28;20447;-50
2022/04/12 01:08:56;;;;;;;7.63;4.35;;;;;;;8.66;37.08;101758.00;5048004;28;20424;-49
2022/04/12 01:11:26;;;;;;;19.42;13.25;;;;;;;8.67;37.06;101759.66;5046542;28;20417;-52
2022/04/12 01:13:53;;;;;;;21.08;14.20;;;;;;;8.60;37.23;101748.78;5046705;28;20461;-51
2022/04/12 01:16:20;;;;;;;21.35;12.93;;;;;;;8.71;37.00;101755.78;5046760;28;20420;-49
2022/04/12 01:18:47;;;;;;;21.52;16.30;;;;;;;8.65;36.88;101753.69;5056847;28;20423;-49
2022/04/12 01:21:15;;;;;;;7.85;6.03;;;;;;;8.67;37.10;101759.66;5063221;28;20448;-50
2022/04/12 01:23:53;;;;;;;7.07;5.97;;;;;;;8.60;36.94;101750.59;5046532;28;20445;-50
2022/04/12 01:26:20;;;;;;;5.55;3.75;;;;;;;8.51;37.49;101748.75;5046489;28;20433;-49
2022/04/12 01:28:47;;;;;;;9.15;6.43;;;;;;;8.57;37.14;101754.34;5055859;28;20983;-49
2022/04/12 01:31:14;;;;;;;6.55;4.85;;;;;;;8.62;37.21;101753.94;5066448;28;20498;-48
2022/04/12 01:33:41;;;;;;;4.80;3.55;;;;;;;8.54;37.36;101748.50;5066539;28;20518;-49
2022/04/12 01:36:08;;;;;;;4.85;3.20;;;;;;;8.54;37.46;101746.66;5062776;28;20421;-49
2022/04/12 01:39:03;;;;;;;5.70;3.73;;;;;;;8.56;37.26;101749.19;5115246;27;20453;-48
2022/04/12 01:41:30;;;;;;;7.35;5.72;;;;;;;8.46;37.22;101757.03;5107216;28;20792;-48
2022/04/12 01:43:57;;;;;;;4.57;2.92;;;;;;;8.49;37.29;101746.22;5107492;28;20417;-48
2022/04/12 01:46:25;;;;;;;5.05;3.10;;;;;;;8.56;37.56;101746.53;5107319;28;20420;-49
2022/04/12 01:48:52;;;;;;;5.20;3.70;;;;;;;8.36;37.92;101742.94;5107136;28;20415;-49
2022/04/12 01:51:19;;;;;;;5.35;3.15;;;;;;;8.39;37.63;101737.38;5107070;28;20419;-48
2022/04/12 01:53:46;;;;;;;4.32;3.22;;;;;;;8.15;38.19;101732.38;5107010;28;20927;-49
2022/04/12 01:56:14;;;;;;;10.32;6.80;;;;;;;8.15;38.01;101735.00;5105944;28;20473;-49
2022/04/12 01:58:42;;;;;;;5.05;3.10;;;;;;;8.24;37.88;101744.78;5106207;28;20460;-48
2022/04/12 02:01:09;;;;;;;5.78;3.55;;;;;;;8.26;37.99;101742.84;5106608;28;20409;-49
2022/04/12 02:03:36;;;;;;;5.10;3.45;;;;;;;8.37;37.72;101741.94;5106077;28;20431;-48
2022/04/12 02:06:59;;;;;;;5.43;3.75;;;;;;;8.22;37.63;101744.91;5118729;27;20453;-50
2022/04/12 02:09:26;;;;;;;5.80;3.88;;;;;;;8.22;37.88;101744.09;5107597;28;20527;-49
2022/04/12 02:11:55;;;;;;;4.30;3.00;;;;;;;8.19;38.14;101747.84;5107681;28;20448;-50
2022/04/12 02:14:22;;;;;;;12.45;5.80;;;;;;;8.22;37.87;101749.38;5107253;28;20512;-51
2022/04/12 02:16:49;;;;;;;10.07;4.72;;;;;;;8.22;38.18;101744.09;5107082;28;20455;-49
2022/04/12 02:19:16;;;;;;;8.60;4.40;;;;;;;8.18;38.36;101742.69;5107319;28;20419;-50
2022/04/12 02:21:43;;;;;;;5.73;3.87;;;;;;;8.21;37.78;101740.63;5107138;28;20498;-49
2022/04/12 02:24:11;;;;;;;5.70;3.58;;;;;;;8.23;38.12;101740.50;5106840;28;20416;-50
2022/04/12 02:26:38;;;;;;;5.45;3.40;;;;;;;8.22;37.88;101736.16;5107159;28;20424;-49
2022/04/12 02:29:06;;;;;;;4.73;3.10;;;;;;;8.17;38.18;101738.34;5107061;28;20443;-49
2022/04/12 02:31:33;;;;;;;6.85;3.10;;;;;;;8.10;38.15;101731.91;5106943;28;20496;-48
2022/04/12 02:34:00;;;;;;;6.05;3.17;;;;;;;8.03;38.19;101731.56;5106938;28;20462;-48
2022/04/12 02:36:27;;;;;;;5.78;4.07;;;;;;;7.99;38.44;101731.00;5106786;28;20436;-49
2022/04/12 02:38:54;;;;;;;5.65;3.70;;;;;;;7.97;38.68;101726.81;5107120;28;20449;-49
2022/04/12 02:41:23;;;;;;;5.10;3.30;;;;;;;7.92;38.65;101729.00;5107107;28;20412;-49
2022/04/12 02:43:49;;;;;;;4.60;3.30;;;;;;;7.83;38.99;101726.16;5106698;28;20790;-50
2022/04/12 02:46:17;;;;;;;5.68;3.40;;;;;;;7.80;38.85;101725.59;5106582;28;20787;-48
2022/04/12 02:48:44;;;;;;;5.65;3.75;;;;;;;7.76;38.88;101732.06;5106581;28;20400;-51
2022/04/12 02:51:11;;;;;;;6.60;4.00;;;;;;;7.75;39.25;101722.50;5106614;28;20935;-49
2022/04/12 02:53:38;;;;;;;5.72;3.80;;;;;;;7.65;39.01;101722.38;5106912;28;20411;-49
2022/04/12 02:56:05;;;;;;;6.63;3.73;;;;;;;7.66;39.17;101726.72;5106756;28;20415;-50
2022/04/12 02:58:34;;;;;;;5.03;3.53;;;;;;;7.68;39.06;101727.44;5106707;28;20419;-49
2022/04/12 03:01:00;;;;;;;4.13;3.50;;;;;;;7.59;39.23;101729.00;5106614;28;20444;-49
2022/04/12 03:03:27;;;;;;;7.05;3.40;;;;;;;7.51;39.56;101726.19;5106227;28;20474;-49
2022/04/12 03:05:54;;;;;;;85.57;70.22;;;;;;;7.62;39.62;101727.94;5105991;28;20918;-49
2022/04/12 03:08:22;;;;;;;8.48;6.72;;;;;;;7.77;38.95;101725.84;5106077;28;20444;-49
2022/04/12 03:10:49;;;;;;;9.93;9.02;;;;;;;7.61;39.64;101724.44;5106403;28;20494;-50
2022/04/12 03:13:16;;;;;;;16.07;14.77;;;;;;;7.72;39.16;101730.66;5106456;28;20482;-49
2022/04/12 03:15:44;;;;;;;14.40;13.32;;;;;;;7.79;39.21;101731.81;5105961;28;20864;-49
2022/04/12 03:18:12;;;;;;;5.50;5.00;;;;;;;7.77;39.19;101739.03;5076695;28;20445;-50
2022/04/12 03:20:39;;;;;;;7.60;5.53;;;;;;;7.77;39.04;101739.84;5092271;28;20506;-49
2022/04/12 03:23:06;;;;;;;7.25;4.97;;;;;;;7.74;39.63;101740.13;5092296;28;20413;-49
2022/04/12 03:25:33;;;;;;;7.75;4.28;;;;;;;7.74;39.21;101734.84;5092272;28;20429;-48
2022/04/12 03:28:00;;;;;;;8.18;5.10;;;;;;;7.73;39.18;101737.63;5091595;28;20417;-50
2022/04/12 03:30:27;;;;;;;5.30;4.23;;;;;;;7.66;39.40;101732.00;5090030;28;20786;-50
2022/04/12 03:32:55;;;;;;;4.88;3.83;;;;;;;7.68;39.30;101732.69;5090919;28;20471;-50
2022/04/12 03:35:22;;;;;;;7.00;4.20;;;;;;;7.65;39.92;101732.94;5091085;28;20445;-51
2022/04/12 03:37:50;;;;;;;9.05;6.07;;;;;;;7.61;39.88;101742.91;5090523;28;20434;-52
2022/04/12 03:40:16;;;;;;;8.40;5.63;;;;;;;7.63;39.88;101743.66;5089922;28;20417;-51
2022/04/12 03:42:44;;;;;;;8.05;7.25;;;;;;;7.58;39.75;101742.31;5089840;28;20405;-53
2022/04/12 03:45:11;;;;;;;9.98;6.78;;;;;;;7.45;40.18;101740.72;5089721;28;20421;-52
2022/04/12 03:47:39;;;;;;;9.57;6.53;;;;;;;7.52;40.37;101746.31;5089945;28;20424;-49
2022/04/12 03:50:09;;;;;;;9.57;6.40;;;;;;;7.38;40.48;101746.59;5089656;28;20413;-52
2022/04/12 03:52:35;;;;;;;7.53;5.82;;;;;;;7.33;40.29;101741.69;5090660;28;20967;-51
2022/04/12 03:55:04;;;;;;;8.30;5.55;;;;;;;7.34;40.62;101742.53;5092063;28;20414;-48
2022/04/12 03:57:32;;;;;;;7.50;4.80;;;;;;;7.33;40.39;101741.69;5091682;28;20503;-51
2022/04/12 03:59:59;;;;;;;8.02;5.18;;;;;;;7.34;40.56;101745.16;5091607;28;20437;-49
2022/04/12 04:02:26;;;;;;;8.48;4.68;;;;;;;7.42;39.94;101737.47;5091819;28;20416;-49
2022/04/12 04:04:53;;;;;;;9.80;5.63;;;;;;;7.42;40.11;101743.59;5091311;28;20765;-49
2022/04/12 04:07:23;;;;;;;6.90;5.20;;;;;;;7.52;40.30;101742.84;5091191;28;20425;-49
2022/04/12 04:09:50;;;;;;;11.60;7.25;;;;;;;7.58;39.75;101743.19;5091017;28;20414;-51
2022/04/12 04:12:17;;;;;;;17.17;6.38;;;;;;;7.69;40.07;101746.72;5088675;28;20444;-50
2022/04/12 04:14:44;;;;;;;10.00;5.30;;;;;;;7.81;39.69;101751.88;5090400;28;20405;-51
2022/04/12 04:17:11;;;;;;;9.43;5.70;;;;;;;7.92;39.29;101753.59;5091531;28;20858;-51
2022/04/12 04:19:38;;;;;;;13.73;8.23;;;;;;;8.12;39.04;101753.75;5089838;28;21226;-49
2022/04/12 04:22:05;;;;;;;13.20;8.82;;;;;;;8.23;38.84;101756.34;5089461;28;20856;-48
2022/04/12 04:24:34;;;;;;;11.40;8.18;;;;;;;8.38;38.69;101754.19;5089483;28;20413;-51
2022/04/12 04:27:05;;;;;;;9.43;6.30;;;;;;;8.38;38.38;101762.13;5090102;28;20432;-48
2022/04/12 04:29:35;;;;;;;7.80;4.30;;;;;;;8.21;38.67;101758.25;5089948;28;20409;-50
2022/04/12 04:32:02;;;;;;;5.40;3.70;;;;;;;8.30;38.22;101757.50;5091024;28;20509;-49
2022/04/12 04:34:29;;;;;;;5.60;3.65;;;;;;;8.58;38.11;101763.09;5091097;28;20410;-48
2022/04/12 04:36:55;;;;;;;6.65;3.70;;;;;;;8.69;37.74;101765.66;5090691;28;20409;-49
2022/04/12 04:39:22;;;;;;;5.75;3.75;;;;;;;8.81;37.62;101771.72;5091022;28;20421;-51
2022/04/12 04:41:51;;;;;;;6.30;3.95;;;;;;;9.05;37.25;101767.91;5090687;28;20418;-51
2022/04/12 04:44:18;;;;;;;5.60;4.23;;;;;;;9.24;36.80;101773.25;5089797;28;20505;-52
2022/04/12 04:46:45;;;;;;;7.32;5.32;;;;;;;9.56;36.47;101774.84;5090313;28;20425;-51
2022/04/12 04:49:12;;;;;;;9.32;4.95;;;;;;;9.84;36.11;101772.38;5090011;28;20413;-50
2022/04/12 04:51:41;;;;;;;6.47;4.00;;;;;;;9.95;35.70;101777.53;5090455;28;20975;-50
2022/04/12 04:54:08;;;;;;;9.47;4.57;;;;;;;10.16;35.38;101774.72;5088429;28;20491;-52
2022/04/12 04:56:35;;;;;;;9.90;5.53;;;;;;;10.40;35.25;101774.28;5087741;28;20458;-50
2022/04/12 04:59:03;;;;;;;10.02;5.07;;;;;;;10.63;34.77;101780.09;5088999;28;20723;-52
2022/04/12 05:01:31;;;;;;;8.65;5.10;;;;;;;10.90;34.57;101779.31;5089583;28;20409;-50
2022/04/12 05:03:57;;;;;;;9.35;4.40;;;;;;;11.14;33.59;101785.06;5090119;28;20907;-48
2022/04/12 05:06:24;;;;;;;9.30;4.53;;;;;;;11.38;33.02;101793.34;5090116;28;20431;-49
2022/04/12 05:08:51;;;;;;;7.28;4.60;;;;;;;11.52;33.41;101783.19;5089911;28;20412;-49
2022/04/12 05:11:18;;;;;;;8.63;5.57;;;;;;;11.48;33.10;101796.75;5090131;28;20448;-49
2022/04/12 05:13:45;;;;;;;10.02;4.90;;;;;;;11.68;33.09;101793.97;5090120;28;20903;-49
2022/04/12 05:16:14;;;;;;;11.70;6.30;;;;;;;11.77;33.11;101800.19;5090367;28;20482;-49
2022/04/12 05:18:41;;;;;;;9.13;5.80;;;;;;;12.08;32.39;101802.50;5090468;28;21245;-48
2022/04/12 05:21:08;;;;;;;10.02;5.47;;;;;;;12.29;31.91;101800.34;5090331;28;20448;-49
2022/04/12 05:23:35;;;;;;;5.90;4.63;;;;;;;12.33;31.91;101799.03;5090007;28;20397;-49
2022/04/12 05:26:01;;;;;;;9.93;5.13;;;;;;;12.69;31.78;101808.78;5089752;28;20872;-52
2022/04/12 05:28:28;;;;;;;12.33;4.97;;;;;;;13.19;31.05;101810.69;5090159;28;20405;-50
2022/04/12 05:30:55;;;;;;;8.13;4.17;;;;;;;13.63;30.39;101807.88;5089775;28;20930;-51
2022/04/12 05:33:24;;;;;;;7.20;4.65;;;;;;;13.65;30.19;101811.22;5089927;28;20478;-49
2022/04/12 05:35:51;;;;;;;7.82;4.20;;;;;;;14.00;29.92;101801.25;5089808;28;20409;-50
2022/04/12 05:38:18;;;;;;;8.20;4.15;;;;;;;14.28;29.87;101791.09;5089939;28;20941;-51
2022/04/12 05:40:45;;;;;;;8.65;4.53;;;;;;;14.80;28.93;101797.03;5089468;28;20787;-49
2022/04/12 05:43:12;;;;;;;7.00;4.07;;;;;;;16.08;27.12;101794.03;5090019;28;20413;-53
2022/04/12 05:45:39;;;;;;;7.70;4.13;;;;;;;17.35;25.68;101785.13;5089914;28;20422;-50
2022/04/12 05:48:06;;;;;;;6.60;3.92;;;;;;;17.77;25.14;101791.56;5089817;28;20497;-49
2022/04/12 05:50:34;;;;;;;6.63;3.90;;;;;;;18.01;24.80;101786.88;5089858;28;20423;-52
2022/04/12 05:53:01;;;;;;;9.75;4.18;;;;;;;18.21;24.75;101787.88;5089588;28;20405;-51
2022/04/12 05:55:28;;;;;;;20.10;4.93;;;;;;;18.21;24.68;101785.19;5089650;28;20419;-50
2022/04/12 05:57:56;;;;;;;8.13;4.30;;;;;;;18.20;24.84;101790.75;5089857;28;20409;-49
2022/04/12 06:00:24;;;;;;;10.32;3.97;;;;;;;18.08;24.79;101785.09;5089724;28;20514;-48
2022/04/12 06:02:52;;;;;;;6.25;4.10;;;;;;;18.01;24.76;101782.34;5089865;28;20417;-49
2022/04/12 06:05:21;;;;;;;5.90;3.80;;;;;;;18.10;24.68;101777.66;5089467;28;20940;-52
2022/04/12 06:07:50;;;;;;;6.07;4.00;;;;;;;18.19;24.87;101787.22;5089336;28;20510;-49
2022/04/12 06:10:18;;;;;;;5.55;3.75;;;;;;;18.43;24.56;101780.59;5089811;28;20523;-48
2022/04/12 06:12:46;;;;;;;6.22;3.50;;;;;;;18.26;24.68;101773.88;5088962;28;21175;-49
2022/04/12 06:15:13;;;;;;;4.63;3.58;;;;;;;18.28;24.60;101779.88;5089304;28;20898;-50
2022/04/12 06:17:41;;;;;;;6.13;3.63;;;;;;;18.21;24.71;101779.00;5089607;28;20417;-49
2022/04/12 06:20:10;;;;;;;7.72;3.80;;;;;;;18.27;24.91;101778.19;5089251;28;20401;-49
2022/04/12 06:22:38;;;;;;;6.80;3.70;;;;;;;17.82;25.66;101780.25;5089576;28;20876;-49
2022/04/12 06:25:08;;;;;;;7.60;3.92;;;;;;;17.99;25.46;101776.34;5088887;28;20806;-49
2022/04/12 06:27:37;;;;;;;5.40;4.03;;;;;;;18.42;24.82;101772.72;5089378;28;20429;-49
2022/04/12 06:30:05;;;;;;;5.15;3.90;;;;;;;18.10;25.02;101781.16;5089468;28;20409;-48
2022/04/12 06:32:33;;;;;;;5.88;3.83;;;;;;;17.71;25.68;101786.97;5089619;28;20409;-49
2022/04/12 06:35:00;;;;;;;6.35;3.90;;;;;;;17.53;25.96;101785.53;5089087;28;20413;-49
2022/04/12 06:37:27;;;;;;;6.20;3.97;;;;;;;17.63;25.95;101784.41;5089521;28;20413;-49
2022/04/12 06:39:55;;;;;;;7.80;4.00;;;;;;;17.85;25.86;101779.88;5089529;28;20444;-49
2022/04/12 06:42:23;;;;;;;6.18;3.80;;;;;;;18.30;26.04;101775.13;5089624;28;20433;-49
2022/04/12 06:44:50;;;;;;;7.53;3.90;;;;;;;18.65;25.38;101767.91;5089281;28;20416;-48
2022/04/12 06:47:17;;;;;;;9.18;5.03;;;;;;;18.59;26.24;101763.34;5089136;28;20460;-49
2022/04/12 06:49:45;;;;;;;6.05;4.03;;;;;;;18.33;25.24;101769.38;5089264;28;20508;-51
2022/04/12 06:52:12;;;;;;;7.07;4.35;;;;;;;18.11;25.25;101774.78;5090485;28;20415;-47
2022/04/12 06:54:39;;;;;;;8.02;3.90;;;;;;;17.84;26.54;101776.34;5092735;28;20911;-48
2022/04/12 06:57:06;;;;;;;7.97;3.90;;;;;;;17.73;27.03;101771.50;5092744;28;20447;-49
2022/04/12 06:59:35;;;;;;;13.25;4.00;;;;;;;17.64;26.52;101776.16;5092770;28;20796;-50
2022/04/12 07:02:02;;;;;;;5.90;3.40;;;;;;;17.29;26.66;101772.50;5092769;28;20492;-49
2022/04/12 07:04:29;;;;;;;4.85;3.20;;;;;;;16.82;26.90;101764.69;5093108;28;20413;-51
2022/04/12 07:06:56;;;;;;;5.82;3.40;;;;;;;18.06;25.88;101763.81;5092523;28;20463;-51
2022/04/12 07:09:23;;;;;;;5.45;3.65;;;;;;;18.55;24.90;101762.09;5092537;28;20413;-48
2022/04/12 07:11:50;;;;;;;6.03;3.35;;;;;;;18.57;24.98;101757.34;5093073;28;20441;-48
2022/04/12 07:14:17;;;;;;;6.28;4.20;;;;;;;18.89;24.61;101763.94;5092150;28;20794;-47
2022/04/12 07:16:47;;;;;;;6.00;3.78;;;;;;;19.38;23.35;101751.31;5092365;28;20415;-49
2022/04/12 07:19:14;;;;;;;5.38;3.80;;;;;;;19.76;22.80;101758.84;5092779;28;20405;-51
2022/04/12 07:21:41;;;;;;;5.75;3.47;;;;;;;21.56;20.16;101761.09;5092719;28;20405;-51
2022/04/12 07:24:08;;;;;;;5.57;3.60;;;;;;;24.22;17.35;101745.47;5092964;28;20436;-51
2022/04/12 07:26:36;;;;;;;6.90;3.65;;;;;;;25.98;15.41;101739.63;5092410;28;20920;-49
2022/04/12 07:29:04;;;;;;;10.93;3.23;;;;;;;28.36;13.38;101737.25;5092516;28;20840;-50
2022/04/12 07:31:31;;;;;;;5.03;3.08;;;;;;;29.64;12.36;101731.31;5092275;28;20772;-50
2022/04/12 07:33:59;;;;;;;4.50;2.80;;;;;;;30.77;11.41;101727.50;5092044;28;20409;-49
2022/04/12 07:36:27;;;;;;;6.20;3.08;;;;;;;31.70;10.78;101724.97;5091844;28;20411;-49
2022/04/12 07:38:54;;;;;;;3.95;2.17;;;;;;;32.08;9.85;101739.69;5091981;28;20409;-51
2022/04/12 07:41:21;;;;;;;8.30;6.35;;;;;;;32.39;9.58;101731.09;5092448;28;20492;-53
2022/04/12 07:43:49;;;;;;;4.07;2.80;;;;;;;32.08;9.95;101730.66;5091875;28;20445;-52
2022/04/12 07:46:16;;;;;;;3.65;2.55;;;;;;;32.17;9.77;101726.16;5091503;28;20944;-51
2022/04/12 07:48:44;;;;;;;6.18;2.95;;;;;;;30.35;10.82;101723.31;5092166;28;20413;-51
2022/04/12 07:51:13;;;;;;;3.47;2.70;;;;;;;26.77;13.29;101733.13;5091770;28;20940;-50
2022/04/12 07:53:40;;;;;;;4.90;3.00;;;;;;;25.12;14.73;101737.88;5091995;28;20405;-53
2022/04/12 07:56:07;;;;;;;3.10;2.33;;;;;;;24.25;15.02;101736.03;5091726;28;20868;-52
2022/04/12 07:58:33;;;;;;;5.90;2.35;;;;;;;23.45;15.98;101731.94;5091538;28;20789;-51
2022/04/12 08:01:00;;;;;;;2.90;2.03;;;;;;;22.81;16.86;101737.72;5091531;28;20415;-50
2022/04/12 08:03:27;;;;;;;3.97;2.45;;;;;;;22.20;17.37;101739.44;5091369;28;20813;-52
2022/04/12 08:05:55;;;;;;;5.20;3.37;;;;;;;21.30;18.12;101732.41;5092030;28;20417;-49
2022/04/12 08:08:23;;;;;;;5.87;2.73;;;;;;;21.19;18.29;101749.25;5091446;28;20460;-50
2022/04/12 08:10:50;;;;;;;3.72;2.30;;;;;;;20.88;18.29;101739.25;5091411;28;20475;-50
2022/04/12 08:13:17;;;;;;;3.93;2.27;;;;;;;20.60;18.99;101743.06;5091399;28;20805;-50
2022/04/12 08:15:44;;;;;;;3.58;2.38;;;;;;;20.18;19.38;101745.19;5091353;28;20414;-51
2022/04/12 08:18:11;;;;;;;3.67;2.47;;;;;;;19.67;19.26;101736.66;5091619;28;20410;-50
2022/04/12 08:20:38;;;;;;;3.50;2.17;;;;;;;19.66;19.31;101744.94;5091415;28;20397;-51
2022/04/12 08:23:05;;;;;;;4.25;2.65;;;;;;;19.20;19.95;101737.63;5091155;28;20918;-50
2022/04/12 08:25:34;;;;;;;4.88;2.60;;;;;;;19.29;19.94;101749.84;5091398;28;20413;-51
2022/04/12 08:28:01;;;;;;;4.03;2.40;;;;;;;18.86;19.95;101745.53;5090571;28;20482;-50
2022/04/12 08:30:28;;;;;;;8.77;2.80;;;;;;;18.60;20.55;101748.91;5090832;28;20413;-50
2022/04/12 08:32:54;;;;;;;6.07;2.58;;;;;;;18.91;20.02;101750.31;5089724;28;20444;-50
2022/04/12 08:35:22;;;;;;;6.05;3.05;;;;;;;18.63;20.10;101748.47;5090644;28;20406;-49
2022/04/12 08:37:49;;;;;;;4.83;2.30;;;;;;;19.10;20.29;101746.91;5091080;28;20441;-49
2022/04/12 08:40:18;;;;;;;4.57;2.33;;;;;;;19.06;20.00;101740.25;5090838;28;20910;-51
2022/04/12 08:42:47;;;;;;;4.87;2.73;;;;;;;19.01;20.16;101744.56;5091111;28;20488;-52
2022/04/12 08:45:14;;;;;;;6.20;2.60;;;;;;;19.34;20.18;101736.63;5090621;28;20911;-53
2022/04/12 08:47:42;;;;;;;4.90;2.30;;;;;;;19.31;20.05;101739.72;5090717;28;20984;-51
2022/04/12 08:50:10;;;;;;;4.67;2.57;;;;;;;18.95;20.22;101731.94;5090580;28;20423;-49
2022/04/12 08:52:38;;;;;;;5.13;2.70;;;;;;;18.66;20.23;101731.97;5090590;28;20423;-51
2022/04/12 08:55:07;;;;;;;3.20;2.50;;;;;;;18.57;20.18;101721.63;5090836;28;20409;-49
2022/04/12 08:57:34;;;;;;;2.67;2.43;;;;;;;18.24;20.50;101720.38;5090793;28;20417;-49
2022/04/12 09:00:04;;;;;;;4.40;2.30;;;;;;;18.28;20.71;101718.97;5090490;28;20448;-50
2022/04/12 09:02:32;;;;;;;4.10;2.40;;;;;;;18.45;20.71;101726.69;5090176;28;20920;-48
2022/04/12 09:04:59;;;;;;;4.85;2.47;;;;;;;18.28;20.50;101708.22;5090394;28;20452;-49
2022/04/12 09:07:27;;;;;;;4.72;2.50;;;;;;;18.17;20.75;101707.94;5090342;28;20456;-50
2022/04/12 09:10:05;;;;;;;3.75;2.25;;;;;;;18.59;20.42;101706.13;5088970;28;20421;-49
2022/04/12 09:12:34;;;;;;;5.57;2.28;;;;;;;18.32;21.04;101706.78;5090535;28;20420;-51
2022/04/12 09:15:04;;;;;;;5.55;2.40;;;;;;;18.43;20.58;101707.28;5089609;28;20415;-49
2022/04/12 09:17:34;;;;;;;3.75;2.22;;;;;;;18.00;20.21;101705.53;5090329;28;20440;-50
2022/04/12 09:20:01;;;;;;;3.80;2.00;;;;;;;17.82;20.31;101703.31;5090442;28;20419;-49
2022/04/12 09:22:29;;;;;;;3.28;2.13;;;;;;;17.70;20.13;101699.47;5090389;28;20454;-50
2022/04/12 09:24:58;;;;;;;3.92;2.20;;;;;;;17.80;20.51;101701.84;5090028;28;20464;-49
2022/04/12 09:27:27;;;;;;;3.78;2.03;;;;;;;18.03;20.76;101696.28;5087756;28;21249;-50
2022/04/12 09:29:55;;;;;;;4.07;2.05;;;;;;;18.21;20.97;101693.13;5088529;28;20462;-48
2022/04/12 09:32:26;;;;;;;4.17;2.30;;;;;;;18.50;20.68;101698.22;5089566;28;20440;-51
2022/04/12 09:34:54;;;;;;;3.13;2.10;;;;;;;18.62;20.59;101687.75;5089375;28;20448;-50
2022/04/12 09:37:25;;;;;;;4.20;2.45;;;;;;;18.47;20.65;101679.81;5090019;28;20413;-49
2022/04/12 09:40:04;;;;;;;4.30;2.40;;;;;;;18.57;20.54;101679.47;5089711;28;20412;-49
2022/04/12 09:42:49;;;;;;;4.97;2.80;;;;;;;18.51;20.94;101673.03;5089578;28;20401;-51
2022/04/12 09:45:17;;;;;;;5.90;2.00;;;;;;;18.62;20.63;101671.66;5089908;28;20401;-51
2022/04/12 09:47:46;;;;;;;9.98;2.80;;;;;;;18.84;20.04;101661.63;5089524;28;20465;-51
2022/04/12 09:50:14;;;;;;;5.82;2.25;;;;;;;18.80;20.36;101665.72;5089655;28;20456;-49
2022/04/12 09:52:53;;;;;;;4.68;2.50;;;;;;;18.92;20.78;101666.00;5090065;28;20414;-49
2022/04/12 09:55:33;;;;;;;2.80;2.20;;;;;;;19.13;20.78;101654.28;5089481;28;20937;-49
2022/04/12 09:58:02;;;;;;;4.20;2.25;;;;;;;18.91;20.42;101664.34;5089855;28;20417;-48
2022/04/12 10:00:30;;;;;;;4.80;2.40;;;;;;;18.28;20.69;101651.84;5089533;28;20926;-51
2022/04/12 10:02:59;;;;;;;4.97;2.20;;;;;;;18.25;20.91;101652.25;5089374;28;20417;-50
2022/04/12 10:05:27;;;;;;;5.07;2.50;;;;;;;18.39;21.06;101652.34;5089769;28;20470;-48
2022/04/12 10:07:58;;;;;;;4.22;2.55;;;;;;;18.21;21.03;101642.94;5089323;28;20435;-50
2022/04/12 10:10:25;;;;;;;3.42;2.20;;;;;;;18.64;20.88;101639.22;5089700;28;20437;-49
2022/04/12 10:12:54;;;;;;;4.60;2.70;;;;;;;18.25;20.84;101636.13;5089475;28;20444;-49
2022/04/12 10:15:21;;;;;;;3.33;2.40;;;;;;;18.45;21.26;101638.09;5089962;28;20420;-48
2022/04/12 10:17:49;;;;;;;5.30;3.30;;;;;;;18.30;21.63;101631.00;5089696;28;20424;-49
2022/04/12 10:20:19;;;;;;;5.47;2.75;;;;;;;18.40;21.49;101629.81;5089545;28;20420;-49
2022/04/12 10:22:47;;;;;;;4.50;2.50;;;;;;;18.23;21.85;101629.31;5089629;28;20449;-51
2022/04/12 10:25:17;;;;;;;6.32;3.10;;;;;;;18.25;21.90;101616.53;5089235;28;20448;-48
2022/04/12 10:27:45;;;;;;;5.30;2.70;;;;;;;18.30;22.13;101620.28;5091412;28;20935;-51
2022/04/12 10:30:27;;;;;;;5.00;2.67;;;;;;;18.49;22.65;101616.03;5093570;28;20825;-49
2022/04/12 10:33:04;;;;;;;3.30;2.10;;;;;;;18.77;21.65;101614.25;5093237;28;20404;-49
2022/04/12 10:35:59;;;;;;;4.05;2.50;;;;;;;18.68;21.01;101610.94;5093407;28;20404;-48
2022/04/12 10:38:27;;;;;;;7.15;4.35;;;;;;;18.42;21.25;101601.75;5092948;28;20405;-48
2022/04/12 10:40:56;;;;;;;5.32;2.75;;;;;;;18.50;21.59;101606.94;5093176;28;20914;-50
2022/04/12 10:43:24;;;;;;;5.27;2.70;;;;;;;18.45;21.51;101605.88;5093598;28;20412;-50
2022/04/12 10:45:52;;;;;;;3.92;2.42;;;;;;;18.47;21.17;101595.78;5093117;28;20501;-49
2022/04/12 10:48:20;;;;;;;3.75;2.50;;;;;;;18.48;20.79;101590.19;5092875;28;20874;-49
2022/04/12 10:50:52;;;;;;;4.20;2.70;;;;;;;18.18;21.31;101586.16;5092889;28;20468;-50
2022/04/12 10:53:55;;;;;;;5.22;2.40;;;;;;;18.12;21.16;101587.78;5093172;28;20409;-48
2022/04/12 10:56:25;;;;;;;6.72;4.05;;;;;;;18.28;21.89;101583.94;5087017;28;20416;-49
2022/04/12 10:58:52;;;;;;;4.65;2.60;;;;;;;17.88;22.54;101581.88;5092823;28;20413;-50
2022/04/12 11:01:35;;;;;;;5.38;3.03;;;;;;;17.35;23.33;101584.13;5092796;28;20413;-49
2022/04/12 11:04:03;;;;;;;4.68;2.85;;;;;;;17.26;23.94;101583.44;5093073;28;20413;-49
2022/04/12 11:06:32;;;;;;;4.93;2.80;;;;;;;17.46;23.52;101574.72;5092755;28;20413;-51
2022/04/12 11:09:10;;;;;;;4.28;2.80;;;;;;;17.56;22.99;101584.09;5092805;28;20439;-48
2022/04/12 11:11:40;;;;;;;4.35;2.78;;;;;;;17.70;22.96;101568.94;5092590;28;20408;-50
2022/04/12 11:14:27;;;;;;;5.07;2.90;;;;;;;17.29;23.55;101571.53;5092835;28;20453;-49
2022/04/12 11:17:02;;;;;;;4.10;2.67;;;;;;;17.03;24.05;101566.75;5092478;28;20409;-49
2022/04/12 11:19:40;;;;;;;5.68;2.80;;;;;;;17.24;24.01;101564.03;5092409;28;20409;-48
2022/04/12 11:22:12;;;;;;;5.43;2.70;;;;;;;17.11;23.74;101554.06;5092768;28;20416;-48
2022/04/12 11:24:39;;;;;;;4.45;2.40;;;;;;;17.42;23.83;101555.53;5092350;28;20416;-49
2022/04/12 11:27:09;;;;;;;6.43;3.15;;;;;;;17.48;23.46;101556.59;5092600;28;20468;-49
2022/04/12 11:29:38;;;;;;;3.53;2.50;;;;;;;17.69;23.23;101555.72;5092468;28;20435;-51
2022/04/12 11:32:06;;;;;;;7.88;2.58;;;;;;;17.27;22.89;101544.91;5092191;28;20768;-49
2022/04/12 11:34:36;;;;;;;4.38;2.40;;;;;;;17.37;22.82;101547.25;5092438;28;20760;-48
2022/04/12 11:37:07;;;;;;;4.00;2.33;;;;;;;17.39;23.10;101537.16;5092480;28;20445;-49